Bělehrad, Srbsko

22:58 CEST 27. Srpen 2014 (GMT +0200)
Beograd-Karaburma | Change Station
CLOSE
Current Station
Osobní povětrnostní stanice
Location: Beograd-Karaburma, SRBIJA
Nadmořská výška: 355 ft
Poblíž povětrnostní stanice

Výška 355 ft 44.81 °N, 20.53 °E | Updated 3 minutes ago

Clear
Jasno
65.1 °F
Pocit jako 65.1 °F
S
0.0
Vítr proměnlivý Vítr od SSZ
Gusts 3.0 mil/h

Dnes
Vysoké -- | Nízké -- °F
--% Možnost srážek
Včera
Vysoké -- | Nízké -- °F
Precip. -- inčů
5:54 AM 7:24 PM
Dorůstající srpek, 5% visible
Tlak 29.98 inčů
Viditelnost -9999.0 mílí
Zataženo
Rosný bod 63 °F
Vlhkost 93%
Dešťové srážky 0.16 inčů
Sněhová pokrývka Není k dispozici
UV záření Není k dispozici
Pyl Není k dispozici
Kvalita ovzduší Není k dispozici
Flu Activity Není k dispozici
METAR LYBE 272030Z 31006KT CAVOK 17/17 Q1015 NOSIG

More Conditions Fewer Conditions

Tlak 29.98 inčů
Viditelnost -9999.0 mílí
Zataženo
Rosný bod 63 °F
Vlhkost 93%
Dešťové srážky 0.16 inčů
Sněhová pokrývka Není k dispozici
UV záření Není k dispozici
Pyl Není k dispozici
Kvalita ovzduší Není k dispozici
Flu Activity Není k dispozici
METAR LYBE 272030Z 31006KT CAVOK 17/17 Q1015 NOSIG

More Conditions Fewer Conditions

10-Day Weather Forecast

Almanac

Astronomie

Aug. 27, 2014 Východ Západ
Skutečný čas 05:54 CEST 19:24 CEST
Občanský soumrak 05:23 CEST 19:54 CEST
Námořní soumrak 04:46 CEST 20:31 CEST
Astronomický soumrak 04:06 CEST 21:11 CEST
Měsíc 07:39 CEST 19:59 CEST
Délka denního světla 14h 31m
Délka dne
13h 30m
Tomorrow will be 2m 56s shorter.
Dorůstající srpek, 5% of the Moon is Illuminated
Dnes
Dorůstající srpek
Zář 2
První čtvrť
Zář 8
Úplněk
Zář 15
Ubývající
Zář 24
Nov

Community

WunderPhotos

Upload Photos

1,747,781 snímků staženo!

Nearby

Výška sněhu

Not available.

Seizmická činnost

Město Distance Mag. Čas & datum
Žádné zemětřesení v okolí nebylo hlášeno
Minimální zobrazený rozsah je 2.5.

Pobřežní teplota vody

Lokalita Teplota
Stanice nic nehlásí

Poblíž povětrnostní stanice